sensor_id;sensor_type;location;lat;lon;timestamp;P1;durP1;ratioP1;P2;durP2;ratioP2
20814;SDS011;10568;48.176;16.316;2023-08-31T00:00:43;1.10;;;1.00;;
20814;SDS011;10568;48.176;16.316;2023-08-31T00:03:09;1.40;;;1.00;;
20814;SDS011;10568;48.176;16.316;2023-08-31T00:05:39;2.73;;;1.30;;
20814;SDS011;10568;48.176;16.316;2023-08-31T00:08:08;1.37;;;1.10;;
20814;SDS011;10568;48.176;16.316;2023-08-31T00:10:36;1.10;;;1.00;;
20814;SDS011;10568;48.176;16.316;2023-08-31T00:13:03;1.00;;;1.00;;
20814;SDS011;10568;48.176;16.316;2023-08-31T00:15:29;1.10;;;1.00;;
20814;SDS011;10568;48.176;16.316;2023-08-31T00:17:58;0.97;;;0.90;;
20814;SDS011;10568;48.176;16.316;2023-08-31T00:20:24;1.97;;;1.33;;
20814;SDS011;10568;48.176;16.316;2023-08-31T00:22:50;1.30;;;1.13;;
20814;SDS011;10568;48.176;16.316;2023-08-31T00:25:16;1.33;;;1.10;;
20814;SDS011;10568;48.176;16.316;2023-08-31T00:27:42;1.83;;;1.27;;
20814;SDS011;10568;48.176;16.316;2023-08-31T00:30:09;1.67;;;1.40;;
20814;SDS011;10568;48.176;16.316;2023-08-31T00:32:37;3.57;;;1.43;;
20814;SDS011;10568;48.176;16.316;2023-08-31T00:35:04;3.50;;;1.40;;
20814;SDS011;10568;48.176;16.316;2023-08-31T00:37:30;1.70;;;1.30;;
20814;SDS011;10568;48.176;16.316;2023-08-31T00:39:56;1.30;;;1.20;;
20814;SDS011;10568;48.176;16.316;2023-08-31T00:42:22;1.63;;;1.10;;
20814;SDS011;10568;48.176;16.316;2023-08-31T00:44:49;1.63;;;1.27;;
20814;SDS011;10568;48.176;16.316;2023-08-31T00:47:15;2.23;;;1.10;;
20814;SDS011;10568;48.176;16.316;2023-08-31T00:49:41;3.43;;;1.30;;
20814;SDS011;10568;48.176;16.316;2023-08-31T00:52:07;1.13;;;1.00;;
20814;SDS011;10568;48.176;16.316;2023-08-31T00:54:34;1.23;;;0.93;;
20814;SDS011;10568;48.176;16.316;2023-08-31T00:57:00;1.30;;;1.10;;
20814;SDS011;10568;48.176;16.316;2023-08-31T00:59:26;1.70;;;1.27;;
20814;SDS011;10568;48.176;16.316;2023-08-31T01:04:32;1.20;;;1.10;;
20814;SDS011;10568;48.176;16.316;2023-08-31T01:10:16;1.40;;;1.20;;
20814;SDS011;10568;48.176;16.316;2023-08-31T01:12:53;1.40;;;1.10;;
20814;SDS011;10568;48.176;16.316;2023-08-31T01:15:28;1.90;;;1.20;;
20814;SDS011;10568;48.176;16.316;2023-08-31T01:17:57;2.60;;;1.20;;
20814;SDS011;10568;48.176;16.316;2023-08-31T01:20:37;1.20;;;1.10;;
20814;SDS011;10568;48.176;16.316;2023-08-31T01:23:09;2.43;;;1.10;;
20814;SDS011;10568;48.176;16.316;2023-08-31T01:25:38;2.20;;;1.20;;
20814;SDS011;10568;48.176;16.316;2023-08-31T01:28:07;1.53;;;1.27;;
20814;SDS011;10568;48.176;16.316;2023-08-31T01:30:33;1.97;;;1.20;;
20814;SDS011;10568;48.176;16.316;2023-08-31T01:32:59;1.50;;;1.40;;
20814;SDS011;10568;48.176;16.316;2023-08-31T01:35:26;1.37;;;1.23;;
20814;SDS011;10568;48.176;16.316;2023-08-31T01:37:55;1.90;;;1.30;;
20814;SDS011;10568;48.176;16.316;2023-08-31T01:42:57;1.33;;;1.00;;
20814;SDS011;10568;48.176;16.316;2023-08-31T01:45:26;1.20;;;1.10;;
20814;SDS011;10568;48.176;16.316;2023-08-31T01:47:52;2.93;;;1.40;;
20814;SDS011;10568;48.176;16.316;2023-08-31T01:50:18;1.07;;;0.97;;
20814;SDS011;10568;48.176;16.316;2023-08-31T01:52:43;1.90;;;1.20;;
20814;SDS011;10568;48.176;16.316;2023-08-31T01:55:09;2.10;;;1.30;;
20814;SDS011;10568;48.176;16.316;2023-08-31T01:57:35;2.67;;;1.47;;
20814;SDS011;10568;48.176;16.316;2023-08-31T02:00:02;1.50;;;1.40;;
20814;SDS011;10568;48.176;16.316;2023-08-31T02:02:29;1.63;;;1.20;;
20814;SDS011;10568;48.176;16.316;2023-08-31T02:04:55;1.30;;;1.17;;
20814;SDS011;10568;48.176;16.316;2023-08-31T02:07:20;2.60;;;1.50;;
20814;SDS011;10568;48.176;16.316;2023-08-31T02:09:46;1.30;;;1.20;;
20814;SDS011;10568;48.176;16.316;2023-08-31T02:12:12;1.40;;;1.30;;
20814;SDS011;10568;48.176;16.316;2023-08-31T02:14:37;2.30;;;1.20;;
20814;SDS011;10568;48.176;16.316;2023-08-31T02:17:03;1.70;;;1.53;;
20814;SDS011;10568;48.176;16.316;2023-08-31T02:19:29;1.73;;;1.33;;
20814;SDS011;10568;48.176;16.316;2023-08-31T02:21:55;1.80;;;1.50;;
20814;SDS011;10568;48.176;16.316;2023-08-31T02:24:21;1.30;;;1.20;;
20814;SDS011;10568;48.176;16.316;2023-08-31T02:26:47;1.23;;;1.10;;
20814;SDS011;10568;48.176;16.316;2023-08-31T02:29:13;1.40;;;1.10;;
20814;SDS011;10568;48.176;16.316;2023-08-31T02:31:39;1.33;;;1.20;;
20814;SDS011;10568;48.176;16.316;2023-08-31T02:34:06;2.40;;;1.47;;
20814;SDS011;10568;48.176;16.316;2023-08-31T02:36:32;2.10;;;1.30;;
20814;SDS011;10568;48.176;16.316;2023-08-31T02:38:58;1.73;;;1.40;;
20814;SDS011;10568;48.176;16.316;2023-08-31T02:41:24;1.53;;;1.43;;
20814;SDS011;10568;48.176;16.316;2023-08-31T02:43:50;1.70;;;1.30;;
20814;SDS011;10568;48.176;16.316;2023-08-31T02:46:17;1.50;;;1.40;;
20814;SDS011;10568;48.176;16.316;2023-08-31T02:48:43;2.50;;;1.60;;
20814;SDS011;10568;48.176;16.316;2023-08-31T02:51:09;1.50;;;1.13;;
20814;SDS011;10568;48.176;16.316;2023-08-31T02:53:35;2.27;;;1.33;;
20814;SDS011;10568;48.176;16.316;2023-08-31T02:56:00;1.30;;;1.20;;
20814;SDS011;10568;48.176;16.316;2023-08-31T02:58:27;1.43;;;1.27;;
20814;SDS011;10568;48.176;16.316;2023-08-31T03:00:52;2.03;;;1.70;;
20814;SDS011;10568;48.176;16.316;2023-08-31T03:03:18;1.43;;;1.33;;
20814;SDS011;10568;48.176;16.316;2023-08-31T03:05:44;1.60;;;1.30;;
20814;SDS011;10568;48.176;16.316;2023-08-31T03:08:16;1.50;;;1.23;;
20814;SDS011;10568;48.176;16.316;2023-08-31T03:10:42;1.20;;;1.10;;
20814;SDS011;10568;48.176;16.316;2023-08-31T03:13:08;1.93;;;1.30;;
20814;SDS011;10568;48.176;16.316;2023-08-31T03:15:34;4.27;;;1.40;;
20814;SDS011;10568;48.176;16.316;2023-08-31T03:17:59;1.73;;;1.43;;
20814;SDS011;10568;48.176;16.316;2023-08-31T03:20:25;2.80;;;1.50;;
20814;SDS011;10568;48.176;16.316;2023-08-31T03:22:51;2.23;;;1.50;;
20814;SDS011;10568;48.176;16.316;2023-08-31T03:25:17;1.53;;;1.20;;
20814;SDS011;10568;48.176;16.316;2023-08-31T03:27:42;1.70;;;1.50;;
20814;SDS011;10568;48.176;16.316;2023-08-31T03:30:09;1.47;;;1.33;;
20814;SDS011;10568;48.176;16.316;2023-08-31T03:32:35;1.83;;;1.30;;
20814;SDS011;10568;48.176;16.316;2023-08-31T03:35:04;2.00;;;1.40;;
20814;SDS011;10568;48.176;16.316;2023-08-31T03:37:30;2.20;;;1.30;;
20814;SDS011;10568;48.176;16.316;2023-08-31T03:39:55;1.30;;;1.20;;
20814;SDS011;10568;48.176;16.316;2023-08-31T03:42:21;1.37;;;1.20;;
20814;SDS011;10568;48.176;16.316;2023-08-31T03:44:47;1.40;;;1.20;;
20814;SDS011;10568;48.176;16.316;2023-08-31T03:47:12;1.50;;;1.20;;
20814;SDS011;10568;48.176;16.316;2023-08-31T03:49:38;2.27;;;1.53;;
20814;SDS011;10568;48.176;16.316;2023-08-31T03:52:04;1.53;;;1.20;;
20814;SDS011;10568;48.176;16.316;2023-08-31T03:54:30;1.70;;;1.37;;
20814;SDS011;10568;48.176;16.316;2023-08-31T03:56:55;2.10;;;1.43;;
20814;SDS011;10568;48.176;16.316;2023-08-31T03:59:21;1.67;;;1.40;;
20814;SDS011;10568;48.176;16.316;2023-08-31T04:01:47;1.27;;;1.17;;
20814;SDS011;10568;48.176;16.316;2023-08-31T04:04:12;1.60;;;1.40;;
20814;SDS011;10568;48.176;16.316;2023-08-31T04:06:38;2.40;;;1.30;;
20814;SDS011;10568;48.176;16.316;2023-08-31T04:09:04;1.50;;;1.27;;
20814;SDS011;10568;48.176;16.316;2023-08-31T04:11:30;1.40;;;1.10;;
20814;SDS011;10568;48.176;16.316;2023-08-31T04:13:55;1.33;;;1.23;;
20814;SDS011;10568;48.176;16.316;2023-08-31T04:16:21;1.57;;;1.40;;
20814;SDS011;10568;48.176;16.316;2023-08-31T04:18:47;1.20;;;1.10;;
20814;SDS011;10568;48.176;16.316;2023-08-31T04:21:16;1.90;;;1.30;;
20814;SDS011;10568;48.176;16.316;2023-08-31T04:23:43;1.50;;;1.20;;
20814;SDS011;10568;48.176;16.316;2023-08-31T04:26:10;1.27;;;1.03;;
20814;SDS011;10568;48.176;16.316;2023-08-31T04:28:39;1.70;;;1.50;;
20814;SDS011;10568;48.176;16.316;2023-08-31T04:31:06;1.27;;;1.17;;
20814;SDS011;10568;48.176;16.316;2023-08-31T04:33:33;2.70;;;1.43;;
20814;SDS011;10568;48.176;16.316;2023-08-31T04:35:59;2.20;;;1.27;;
20814;SDS011;10568;48.176;16.316;2023-08-31T04:38:25;2.07;;;1.30;;
20814;SDS011;10568;48.176;16.316;2023-08-31T04:40:51;1.63;;;1.30;;
20814;SDS011;10568;48.176;16.316;2023-08-31T04:43:17;1.73;;;1.30;;
20814;SDS011;10568;48.176;16.316;2023-08-31T04:45:44;1.60;;;1.30;;
20814;SDS011;10568;48.176;16.316;2023-08-31T04:48:09;1.73;;;1.37;;
20814;SDS011;10568;48.176;16.316;2023-08-31T04:50:35;1.53;;;1.20;;
20814;SDS011;10568;48.176;16.316;2023-08-31T04:53:01;1.50;;;1.10;;
20814;SDS011;10568;48.176;16.316;2023-08-31T04:55:27;1.57;;;1.33;;
20814;SDS011;10568;48.176;16.316;2023-08-31T04:57:52;1.50;;;1.40;;
20814;SDS011;10568;48.176;16.316;2023-08-31T05:00:18;1.60;;;1.13;;
20814;SDS011;10568;48.176;16.316;2023-08-31T05:02:44;1.50;;;1.30;;
20814;SDS011;10568;48.176;16.316;2023-08-31T05:05:10;1.50;;;1.40;;
20814;SDS011;10568;48.176;16.316;2023-08-31T05:07:45;2.33;;;1.00;;
20814;SDS011;10568;48.176;16.316;2023-08-31T05:10:10;1.90;;;1.40;;
20814;SDS011;10568;48.176;16.316;2023-08-31T05:12:36;1.30;;;1.20;;
20814;SDS011;10568;48.176;16.316;2023-08-31T05:15:02;1.43;;;1.20;;
20814;SDS011;10568;48.176;16.316;2023-08-31T05:17:28;1.43;;;1.30;;
20814;SDS011;10568;48.176;16.316;2023-08-31T05:19:55;1.30;;;1.20;;
20814;SDS011;10568;48.176;16.316;2023-08-31T05:22:21;1.30;;;1.20;;
20814;SDS011;10568;48.176;16.316;2023-08-31T05:24:47;2.00;;;1.37;;
20814;SDS011;10568;48.176;16.316;2023-08-31T05:27:13;1.50;;;1.40;;
20814;SDS011;10568;48.176;16.316;2023-08-31T05:29:39;1.60;;;1.30;;
20814;SDS011;10568;48.176;16.316;2023-08-31T05:32:04;1.30;;;1.20;;
20814;SDS011;10568;48.176;16.316;2023-08-31T05:34:30;1.30;;;1.10;;
20814;SDS011;10568;48.176;16.316;2023-08-31T05:36:59;1.60;;;1.30;;
20814;SDS011;10568;48.176;16.316;2023-08-31T05:39:26;1.70;;;1.60;;
20814;SDS011;10568;48.176;16.316;2023-08-31T05:41:53;1.50;;;1.20;;
20814;SDS011;10568;48.176;16.316;2023-08-31T05:44:19;2.43;;;1.10;;
20814;SDS011;10568;48.176;16.316;2023-08-31T05:46:45;1.77;;;1.20;;
20814;SDS011;10568;48.176;16.316;2023-08-31T05:49:10;1.53;;;1.27;;
20814;SDS011;10568;48.176;16.316;2023-08-31T05:51:36;1.20;;;1.10;;
20814;SDS011;10568;48.176;16.316;2023-08-31T05:54:02;1.37;;;1.07;;
20814;SDS011;10568;48.176;16.316;2023-08-31T05:56:28;1.23;;;1.13;;
20814;SDS011;10568;48.176;16.316;2023-08-31T05:58:54;2.97;;;1.47;;
20814;SDS011;10568;48.176;16.316;2023-08-31T06:01:21;1.80;;;1.10;;
20814;SDS011;10568;48.176;16.316;2023-08-31T06:03:50;1.50;;;1.10;;
20814;SDS011;10568;48.176;16.316;2023-08-31T06:06:16;3.03;;;1.33;;
20814;SDS011;10568;48.176;16.316;2023-08-31T06:08:42;1.30;;;1.10;;
20814;SDS011;10568;48.176;16.316;2023-08-31T06:11:08;1.73;;;1.10;;
20814;SDS011;10568;48.176;16.316;2023-08-31T06:13:35;1.20;;;1.07;;
20814;SDS011;10568;48.176;16.316;2023-08-31T06:16:01;1.50;;;1.10;;
20814;SDS011;10568;48.176;16.316;2023-08-31T06:18:27;1.00;;;0.90;;
20814;SDS011;10568;48.176;16.316;2023-08-31T06:20:53;0.93;;;0.83;;
20814;SDS011;10568;48.176;16.316;2023-08-31T06:23:19;1.57;;;1.20;;
20814;SDS011;10568;48.176;16.316;2023-08-31T06:25:44;1.60;;;1.00;;
20814;SDS011;10568;48.176;16.316;2023-08-31T06:28:13;2.83;;;1.30;;
20814;SDS011;10568;48.176;16.316;2023-08-31T06:30:40;4.20;;;1.27;;
20814;SDS011;10568;48.176;16.316;2023-08-31T06:33:11;1.70;;;1.07;;
20814;SDS011;10568;48.176;16.316;2023-08-31T06:35:40;1.30;;;0.87;;
20814;SDS011;10568;48.176;16.316;2023-08-31T06:38:06;1.30;;;1.10;;
20814;SDS011;10568;48.176;16.316;2023-08-31T06:40:31;2.23;;;1.10;;
20814;SDS011;10568;48.176;16.316;2023-08-31T06:42:58;1.00;;;0.90;;
20814;SDS011;10568;48.176;16.316;2023-08-31T06:45:24;2.43;;;0.80;;
20814;SDS011;10568;48.176;16.316;2023-08-31T06:47:50;1.80;;;1.07;;
20814;SDS011;10568;48.176;16.316;2023-08-31T06:50:16;1.27;;;0.87;;
20814;SDS011;10568;48.176;16.316;2023-08-31T06:52:42;1.23;;;1.10;;
20814;SDS011;10568;48.176;16.316;2023-08-31T06:55:09;1.30;;;1.00;;
20814;SDS011;10568;48.176;16.316;2023-08-31T06:57:36;1.20;;;1.10;;
20814;SDS011;10568;48.176;16.316;2023-08-31T07:00:02;1.70;;;0.90;;
20814;SDS011;10568;48.176;16.316;2023-08-31T07:02:29;1.70;;;1.00;;
20814;SDS011;10568;48.176;16.316;2023-08-31T07:04:55;0.93;;;0.83;;
20814;SDS011;10568;48.176;16.316;2023-08-31T07:07:20;0.83;;;0.80;;
20814;SDS011;10568;48.176;16.316;2023-08-31T07:09:46;1.90;;;1.10;;
20814;SDS011;10568;48.176;16.316;2023-08-31T07:12:16;1.73;;;0.90;;
20814;SDS011;10568;48.176;16.316;2023-08-31T07:14:42;0.90;;;0.90;;
20814;SDS011;10568;48.176;16.316;2023-08-31T07:17:08;1.67;;;1.10;;
20814;SDS011;10568;48.176;16.316;2023-08-31T07:19:37;1.30;;;0.87;;
20814;SDS011;10568;48.176;16.316;2023-08-31T07:22:03;1.25;;;1.00;;
20814;SDS011;10568;48.176;16.316;2023-08-31T07:24:31;1.57;;;1.10;;
20814;SDS011;10568;48.176;16.316;2023-08-31T07:26:57;1.20;;;0.97;;
20814;SDS011;10568;48.176;16.316;2023-08-31T07:29:22;3.30;;;1.00;;
20814;SDS011;10568;48.176;16.316;2023-08-31T07:31:48;1.60;;;1.10;;
20814;SDS011;10568;48.176;16.316;2023-08-31T07:34:14;4.10;;;1.10;;
20814;SDS011;10568;48.176;16.316;2023-08-31T07:36:43;1.23;;;1.00;;
20814;SDS011;10568;48.176;16.316;2023-08-31T07:39:08;1.42;;;0.85;;
20814;SDS011;10568;48.176;16.316;2023-08-31T07:41:34;1.87;;;1.40;;
20814;SDS011;10568;48.176;16.316;2023-08-31T07:44:00;1.67;;;1.00;;
20814;SDS011;10568;48.176;16.316;2023-08-31T07:46:28;1.30;;;1.10;;
20814;SDS011;10568;48.176;16.316;2023-08-31T07:48:53;1.77;;;1.10;;
20814;SDS011;10568;48.176;16.316;2023-08-31T07:51:20;2.08;;;0.90;;
20814;SDS011;10568;48.176;16.316;2023-08-31T07:53:48;1.55;;;1.15;;
20814;SDS011;10568;48.176;16.316;2023-08-31T07:56:14;2.35;;;1.20;;
20814;SDS011;10568;48.176;16.316;2023-08-31T07:58:40;1.35;;;1.05;;
20814;SDS011;10568;48.176;16.316;2023-08-31T08:01:06;1.85;;;1.10;;
20814;SDS011;10568;48.176;16.316;2023-08-31T08:03:32;2.75;;;1.23;;
20814;SDS011;10568;48.176;16.316;2023-08-31T08:05:57;1.85;;;1.13;;
20814;SDS011;10568;48.176;16.316;2023-08-31T08:08:23;3.53;;;0.90;;
20814;SDS011;10568;48.176;16.316;2023-08-31T08:10:53;1.67;;;1.30;;
20814;SDS011;10568;48.176;16.316;2023-08-31T08:13:19;1.85;;;1.15;;
20814;SDS011;10568;48.176;16.316;2023-08-31T08:15:45;1.85;;;1.13;;
20814;SDS011;10568;48.176;16.316;2023-08-31T08:18:11;1.80;;;1.40;;
20814;SDS011;10568;48.176;16.316;2023-08-31T08:20:37;1.33;;;1.20;;
20814;SDS011;10568;48.176;16.316;2023-08-31T08:23:04;1.73;;;1.17;;
20814;SDS011;10568;48.176;16.316;2023-08-31T08:25:31;1.42;;;1.33;;
20814;SDS011;10568;48.176;16.316;2023-08-31T08:27:57;1.15;;;1.02;;
20814;SDS011;10568;48.176;16.316;2023-08-31T08:30:23;1.98;;;0.95;;
20814;SDS011;10568;48.176;16.316;2023-08-31T08:32:49;1.27;;;1.08;;
20814;SDS011;10568;48.176;16.316;2023-08-31T08:35:14;1.20;;;0.95;;
20814;SDS011;10568;48.176;16.316;2023-08-31T08:37:40;1.10;;;1.00;;
20814;SDS011;10568;48.176;16.316;2023-08-31T08:40:06;1.70;;;1.00;;
20814;SDS011;10568;48.176;16.316;2023-08-31T08:42:32;0.75;;;0.75;;
20814;SDS011;10568;48.176;16.316;2023-08-31T08:45:07;0.80;;;0.73;;
20814;SDS011;10568;48.176;16.316;2023-08-31T08:47:40;3.00;;;0.90;;
20814;SDS011;10568;48.176;16.316;2023-08-31T08:50:08;1.30;;;0.93;;
20814;SDS011;10568;48.176;16.316;2023-08-31T08:52:35;1.48;;;0.95;;
20814;SDS011;10568;48.176;16.316;2023-08-31T08:55:02;0.82;;;0.80;;
20814;SDS011;10568;48.176;16.316;2023-08-31T08:57:28;0.82;;;0.82;;
20814;SDS011;10568;48.176;16.316;2023-08-31T08:59:57;2.45;;;0.80;;
20814;SDS011;10568;48.176;16.316;2023-08-31T09:02:23;1.95;;;1.17;;
20814;SDS011;10568;48.176;16.316;2023-08-31T09:04:49;1.80;;;0.82;;
20814;SDS011;10568;48.176;16.316;2023-08-31T09:07:19;1.20;;;0.82;;
20814;SDS011;10568;48.176;16.316;2023-08-31T09:09:50;1.00;;;0.90;;
20814;SDS011;10568;48.176;16.316;2023-08-31T09:12:17;1.15;;;0.70;;
20814;SDS011;10568;48.176;16.316;2023-08-31T09:14:56;0.80;;;0.60;;
20814;SDS011;10568;48.176;16.316;2023-08-31T09:17:25;1.15;;;0.73;;
20814;SDS011;10568;48.176;16.316;2023-08-31T09:19:58;0.60;;;0.60;;
20814;SDS011;10568;48.176;16.316;2023-08-31T09:22:26;1.00;;;0.57;;
20814;SDS011;10568;48.176;16.316;2023-08-31T09:24:51;1.02;;;0.68;;
20814;SDS011;10568;48.176;16.316;2023-08-31T09:27:17;1.65;;;0.60;;
20814;SDS011;10568;48.176;16.316;2023-08-31T09:29:46;1.33;;;0.73;;
20814;SDS011;10568;48.176;16.316;2023-08-31T09:32:24;1.10;;;0.80;;
20814;SDS011;10568;48.176;16.316;2023-08-31T09:34:50;0.95;;;0.73;;
20814;SDS011;10568;48.176;16.316;2023-08-31T09:37:16;1.05;;;0.60;;
20814;SDS011;10568;48.176;16.316;2023-08-31T09:39:41;1.52;;;0.70;;
20814;SDS011;10568;48.176;16.316;2023-08-31T09:42:07;1.00;;;0.70;;
20814;SDS011;10568;48.176;16.316;2023-08-31T09:44:34;1.15;;;0.70;;
20814;SDS011;10568;48.176;16.316;2023-08-31T09:47:06;0.88;;;0.65;;
20814;SDS011;10568;48.176;16.316;2023-08-31T09:49:33;1.08;;;0.90;;
20814;SDS011;10568;48.176;16.316;2023-08-31T09:52:00;1.90;;;0.90;;
20814;SDS011;10568;48.176;16.316;2023-08-31T09:54:30;0.60;;;0.57;;
20814;SDS011;10568;48.176;16.316;2023-08-31T09:56:57;1.00;;;0.75;;
20814;SDS011;10568;48.176;16.316;2023-08-31T09:59:27;1.00;;;0.82;;
20814;SDS011;10568;48.176;16.316;2023-08-31T10:01:53;0.70;;;0.60;;
20814;SDS011;10568;48.176;16.316;2023-08-31T10:04:21;0.90;;;0.70;;
20814;SDS011;10568;48.176;16.316;2023-08-31T10:06:48;0.63;;;0.43;;
20814;SDS011;10568;48.176;16.316;2023-08-31T10:09:14;0.75;;;0.60;;
20814;SDS011;10568;48.176;16.316;2023-08-31T10:11:41;1.20;;;0.70;;
20814;SDS011;10568;48.176;16.316;2023-08-31T10:14:08;0.88;;;0.52;;
20814;SDS011;10568;48.176;16.316;2023-08-31T10:16:36;0.68;;;0.45;;
20814;SDS011;10568;48.176;16.316;2023-08-31T10:19:05;1.48;;;0.73;;
20814;SDS011;10568;48.176;16.316;2023-08-31T10:21:31;0.50;;;0.50;;
20814;SDS011;10568;48.176;16.316;2023-08-31T10:23:59;0.75;;;0.60;;
20814;SDS011;10568;48.176;16.316;2023-08-31T10:26:29;0.88;;;0.60;;
20814;SDS011;10568;48.176;16.316;2023-08-31T10:28:56;0.75;;;0.60;;
20814;SDS011;10568;48.176;16.316;2023-08-31T10:31:27;0.80;;;0.60;;
20814;SDS011;10568;48.176;16.316;2023-08-31T10:34:04;0.77;;;0.68;;
20814;SDS011;10568;48.176;16.316;2023-08-31T10:39:06;0.85;;;0.70;;
20814;SDS011;10568;48.176;16.316;2023-08-31T10:41:41;1.83;;;0.70;;
20814;SDS011;10568;48.176;16.316;2023-08-31T10:46:46;0.90;;;0.70;;
20814;SDS011;10568;48.176;16.316;2023-08-31T10:49:12;0.95;;;0.77;;
20814;SDS011;10568;48.176;16.316;2023-08-31T10:51:41;1.08;;;0.88;;
20814;SDS011;10568;48.176;16.316;2023-08-31T10:54:10;0.90;;;0.65;;
20814;SDS011;10568;48.176;16.316;2023-08-31T10:59:22;1.30;;;0.70;;
20814;SDS011;10568;48.176;16.316;2023-08-31T11:01:58;0.70;;;0.70;;
20814;SDS011;10568;48.176;16.316;2023-08-31T11:04:27;1.52;;;0.90;;
20814;SDS011;10568;48.176;16.316;2023-08-31T11:09:44;1.33;;;0.77;;
20814;SDS011;10568;48.176;16.316;2023-08-31T11:12:11;1.35;;;0.73;;
20814;SDS011;10568;48.176;16.316;2023-08-31T11:14:37;1.48;;;0.60;;
20814;SDS011;10568;48.176;16.316;2023-08-31T11:17:04;2.53;;;0.68;;
20814;SDS011;10568;48.176;16.316;2023-08-31T11:19:31;1.90;;;0.70;;
20814;SDS011;10568;48.176;16.316;2023-08-31T11:21:58;1.85;;;0.90;;
20814;SDS011;10568;48.176;16.316;2023-08-31T11:24:32;1.15;;;0.70;;
20814;SDS011;10568;48.176;16.316;2023-08-31T11:26:58;0.75;;;0.60;;
20814;SDS011;10568;48.176;16.316;2023-08-31T11:29:24;2.28;;;0.80;;
20814;SDS011;10568;48.176;16.316;2023-08-31T11:31:51;1.65;;;1.00;;
20814;SDS011;10568;48.176;16.316;2023-08-31T11:34:18;1.55;;;0.65;;
20814;SDS011;10568;48.176;16.316;2023-08-31T11:36:45;1.02;;;0.70;;
20814;SDS011;10568;48.176;16.316;2023-08-31T11:39:12;1.02;;;0.80;;
20814;SDS011;10568;48.176;16.316;2023-08-31T11:41:38;1.23;;;0.82;;
20814;SDS011;10568;48.176;16.316;2023-08-31T11:44:08;1.50;;;0.95;;
20814;SDS011;10568;48.176;16.316;2023-08-31T11:46:35;1.13;;;0.70;;
20814;SDS011;10568;48.176;16.316;2023-08-31T11:49:02;1.08;;;0.60;;
20814;SDS011;10568;48.176;16.316;2023-08-31T11:51:32;3.40;;;0.65;;
20814;SDS011;10568;48.176;16.316;2023-08-31T11:54:00;1.02;;;0.80;;
20814;SDS011;10568;48.176;16.316;2023-08-31T11:59:24;1.40;;;0.85;;
20814;SDS011;10568;48.176;16.316;2023-08-31T12:01:50;1.25;;;0.85;;
20814;SDS011;10568;48.176;16.316;2023-08-31T12:04:16;1.50;;;0.80;;
20814;SDS011;10568;48.176;16.316;2023-08-31T12:06:46;1.08;;;0.75;;
20814;SDS011;10568;48.176;16.316;2023-08-31T12:09:15;0.77;;;0.60;;
20814;SDS011;10568;48.176;16.316;2023-08-31T12:11:40;0.47;;;0.45;;
20814;SDS011;10568;48.176;16.316;2023-08-31T12:14:20;1.45;;;0.73;;
20814;SDS011;10568;48.176;16.316;2023-08-31T12:16:48;0.90;;;0.65;;
20814;SDS011;10568;48.176;16.316;2023-08-31T12:19:14;2.25;;;0.88;;
20814;SDS011;10568;48.176;16.316;2023-08-31T12:21:42;1.33;;;0.70;;
20814;SDS011;10568;48.176;16.316;2023-08-31T12:24:09;3.50;;;0.77;;
20814;SDS011;10568;48.176;16.316;2023-08-31T12:26:35;1.73;;;0.98;;
20814;SDS011;10568;48.176;16.316;2023-08-31T12:29:04;0.75;;;0.70;;
20814;SDS011;10568;48.176;16.316;2023-08-31T12:31:30;1.55;;;0.98;;
20814;SDS011;10568;48.176;16.316;2023-08-31T12:33:57;1.83;;;0.85;;
20814;SDS011;10568;48.176;16.316;2023-08-31T12:36:23;1.27;;;0.73;;
20814;SDS011;10568;48.176;16.316;2023-08-31T12:38:49;1.08;;;0.70;;
20814;SDS011;10568;48.176;16.316;2023-08-31T12:41:16;1.20;;;0.98;;
20814;SDS011;10568;48.176;16.316;2023-08-31T12:43:42;0.63;;;0.52;;
20814;SDS011;10568;48.176;16.316;2023-08-31T12:46:08;1.92;;;0.82;;
20814;SDS011;10568;48.176;16.316;2023-08-31T12:48:34;1.83;;;0.80;;
20814;SDS011;10568;48.176;16.316;2023-08-31T12:51:00;0.85;;;0.70;;
20814;SDS011;10568;48.176;16.316;2023-08-31T12:53:26;0.70;;;0.70;;
20814;SDS011;10568;48.176;16.316;2023-08-31T12:55:52;0.85;;;0.73;;
20814;SDS011;10568;48.176;16.316;2023-08-31T12:58:19;0.80;;;0.70;;
20814;SDS011;10568;48.176;16.316;2023-08-31T13:00:49;1.88;;;0.98;;
20814;SDS011;10568;48.176;16.316;2023-08-31T13:03:18;1.13;;;0.77;;
20814;SDS011;10568;48.176;16.316;2023-08-31T13:05:44;2.67;;;1.00;;
20814;SDS011;10568;48.176;16.316;2023-08-31T13:08:10;0.65;;;0.60;;
20814;SDS011;10568;48.176;16.316;2023-08-31T13:10:36;2.83;;;0.90;;
20814;SDS011;10568;48.176;16.316;2023-08-31T13:13:01;2.45;;;0.68;;
20814;SDS011;10568;48.176;16.316;2023-08-31T13:15:27;1.35;;;0.90;;
20814;SDS011;10568;48.176;16.316;2023-08-31T13:17:53;1.00;;;0.90;;
20814;SDS011;10568;48.176;16.316;2023-08-31T13:20:19;1.70;;;0.80;;
20814;SDS011;10568;48.176;16.316;2023-08-31T13:22:44;1.15;;;0.85;;
20814;SDS011;10568;48.176;16.316;2023-08-31T13:25:10;1.20;;;0.73;;
20814;SDS011;10568;48.176;16.316;2023-08-31T13:27:36;1.20;;;0.70;;
20814;SDS011;10568;48.176;16.316;2023-08-31T13:30:03;0.98;;;0.65;;
20814;SDS011;10568;48.176;16.316;2023-08-31T13:32:32;1.92;;;0.70;;
20814;SDS011;10568;48.176;16.316;2023-08-31T13:34:58;1.40;;;0.70;;
20814;SDS011;10568;48.176;16.316;2023-08-31T13:37:25;1.90;;;0.57;;
20814;SDS011;10568;48.176;16.316;2023-08-31T13:39:51;1.20;;;0.90;;
20814;SDS011;10568;48.176;16.316;2023-08-31T13:42:22;1.63;;;0.88;;
20814;SDS011;10568;48.176;16.316;2023-08-31T13:44:48;2.10;;;0.70;;
20814;SDS011;10568;48.176;16.316;2023-08-31T13:47:14;1.83;;;0.80;;
20814;SDS011;10568;48.176;16.316;2023-08-31T13:49:39;1.13;;;0.70;;
20814;SDS011;10568;48.176;16.316;2023-08-31T13:52:05;1.92;;;0.88;;
20814;SDS011;10568;48.176;16.316;2023-08-31T13:54:33;0.98;;;0.70;;
20814;SDS011;10568;48.176;16.316;2023-08-31T13:56:59;2.08;;;0.70;;
20814;SDS011;10568;48.176;16.316;2023-08-31T13:59:25;1.10;;;0.70;;
20814;SDS011;10568;48.176;16.316;2023-08-31T14:01:53;1.55;;;0.80;;
20814;SDS011;10568;48.176;16.316;2023-08-31T14:04:19;1.13;;;0.70;;
20814;SDS011;10568;48.176;16.316;2023-08-31T14:06:47;1.20;;;0.82;;
20814;SDS011;10568;48.176;16.316;2023-08-31T14:09:13;1.45;;;0.70;;
20814;SDS011;10568;48.176;16.316;2023-08-31T14:11:40;1.17;;;0.70;;
20814;SDS011;10568;48.176;16.316;2023-08-31T14:14:06;2.35;;;0.82;;
20814;SDS011;10568;48.176;16.316;2023-08-31T14:16:36;2.58;;;1.00;;
20814;SDS011;10568;48.176;16.316;2023-08-31T14:19:06;1.50;;;0.80;;
20814;SDS011;10568;48.176;16.316;2023-08-31T14:21:31;1.25;;;0.90;;
20814;SDS011;10568;48.176;16.316;2023-08-31T14:23:57;1.55;;;0.70;;
20814;SDS011;10568;48.176;16.316;2023-08-31T14:26:23;2.17;;;0.75;;
20814;SDS011;10568;48.176;16.316;2023-08-31T14:28:52;1.23;;;0.73;;
20814;SDS011;10568;48.176;16.316;2023-08-31T14:31:19;1.00;;;0.90;;
20814;SDS011;10568;48.176;16.316;2023-08-31T14:34:03;1.17;;;0.82;;
20814;SDS011;10568;48.176;16.316;2023-08-31T14:36:30;0.50;;;0.50;;
20814;SDS011;10568;48.176;16.316;2023-08-31T14:38:55;1.17;;;0.50;;
20814;SDS011;10568;48.176;16.316;2023-08-31T14:41:22;3.22;;;1.13;;
20814;SDS011;10568;48.176;16.316;2023-08-31T14:43:48;2.33;;;0.90;;
20814;SDS011;10568;48.176;16.316;2023-08-31T14:46:14;1.90;;;0.93;;
20814;SDS011;10568;48.176;16.316;2023-08-31T14:48:40;2.15;;;0.93;;
20814;SDS011;10568;48.176;16.316;2023-08-31T14:51:06;1.75;;;0.75;;
20814;SDS011;10568;48.176;16.316;2023-08-31T14:53:34;2.63;;;0.88;;